sensor_id;sensor_type;location;lat;lon;timestamp;temperature;humidity
1411;DHT22;700;51.906;8.404;2022-08-19T00:00:41;23.10;99.90
1411;DHT22;700;51.906;8.404;2022-08-19T00:05:41;23.00;99.90
1411;DHT22;700;51.906;8.404;2022-08-19T00:10:42;23.00;99.90
1411;DHT22;700;51.906;8.404;2022-08-19T00:15:43;23.00;99.90
1411;DHT22;700;51.906;8.404;2022-08-19T00:20:47;23.00;99.90
1411;DHT22;700;51.906;8.404;2022-08-19T00:25:47;22.90;99.90
1411;DHT22;700;51.906;8.404;2022-08-19T00:30:48;22.70;99.90
1411;DHT22;700;51.906;8.404;2022-08-19T00:35:49;22.50;99.90
1411;DHT22;700;51.906;8.404;2022-08-19T00:40:52;22.50;99.90
1411;DHT22;700;51.906;8.404;2022-08-19T00:45:53;22.70;99.90
1411;DHT22;700;51.906;8.404;2022-08-19T00:50:54;22.60;99.90
1411;DHT22;700;51.906;8.404;2022-08-19T00:55:59;22.50;99.90
1411;DHT22;700;51.906;8.404;2022-08-19T01:01:06;22.40;99.90
1411;DHT22;700;51.906;8.404;2022-08-19T01:06:12;22.30;99.90
1411;DHT22;700;51.906;8.404;2022-08-19T01:11:13;22.20;99.90
1411;DHT22;700;51.906;8.404;2022-08-19T01:16:14;22.30;99.90
1411;DHT22;700;51.906;8.404;2022-08-19T01:21:32;22.20;99.90
1411;DHT22;700;51.906;8.404;2022-08-19T01:26:40;22.20;99.90
1411;DHT22;700;51.906;8.404;2022-08-19T01:31:44;22.20;99.90
1411;DHT22;700;51.906;8.404;2022-08-19T01:36:46;22.00;99.90
1411;DHT22;700;51.906;8.404;2022-08-19T01:41:50;22.10;99.90
1411;DHT22;700;51.906;8.404;2022-08-19T01:46:52;22.10;99.90
1411;DHT22;700;51.906;8.404;2022-08-19T01:51:56;22.00;99.90
1411;DHT22;700;51.906;8.404;2022-08-19T01:57:09;22.00;99.90
1411;DHT22;700;51.906;8.404;2022-08-19T02:02:11;21.90;99.90
1411;DHT22;700;51.906;8.404;2022-08-19T02:07:12;21.90;99.90
1411;DHT22;700;51.906;8.404;2022-08-19T02:12:12;21.80;99.90
1411;DHT22;700;51.906;8.404;2022-08-19T02:17:13;21.70;99.90
1411;DHT22;700;51.906;8.404;2022-08-19T02:22:16;21.60;99.90
1411;DHT22;700;51.906;8.404;2022-08-19T02:27:19;21.60;99.90
1411;DHT22;700;51.906;8.404;2022-08-19T02:32:22;21.50;99.90
1411;DHT22;700;51.906;8.404;2022-08-19T02:37:23;21.60;99.90
1411;DHT22;700;51.906;8.404;2022-08-19T02:42:43;21.50;99.90
1411;DHT22;700;51.906;8.404;2022-08-19T02:47:48;21.40;99.90
1411;DHT22;700;51.906;8.404;2022-08-19T02:52:49;21.40;99.90
1411;DHT22;700;51.906;8.404;2022-08-19T02:57:52;21.40;99.90
1411;DHT22;700;51.906;8.404;2022-08-19T03:02:55;21.20;99.90
1411;DHT22;700;51.906;8.404;2022-08-19T03:08:00;21.20;99.90
1411;DHT22;700;51.906;8.404;2022-08-19T03:13:02;21.30;99.90
1411;DHT22;700;51.906;8.404;2022-08-19T03:18:03;21.20;99.90
1411;DHT22;700;51.906;8.404;2022-08-19T03:23:06;21.20;99.90
1411;DHT22;700;51.906;8.404;2022-08-19T03:28:06;21.10;99.90
1411;DHT22;700;51.906;8.404;2022-08-19T03:33:09;21.20;99.90
1411;DHT22;700;51.906;8.404;2022-08-19T03:38:12;21.20;99.90
1411;DHT22;700;51.906;8.404;2022-08-19T03:43:13;21.00;99.90
1411;DHT22;700;51.906;8.404;2022-08-19T03:48:18;21.00;99.90
1411;DHT22;700;51.906;8.404;2022-08-19T03:53:19;21.00;99.90
1411;DHT22;700;51.906;8.404;2022-08-19T03:58:20;21.00;99.90
1411;DHT22;700;51.906;8.404;2022-08-19T04:03:22;20.90;99.90
1411;DHT22;700;51.906;8.404;2022-08-19T04:08:22;20.90;99.90
1411;DHT22;700;51.906;8.404;2022-08-19T04:13:23;20.90;99.90
1411;DHT22;700;51.906;8.404;2022-08-19T04:18:23;20.80;99.90
1411;DHT22;700;51.906;8.404;2022-08-19T04:23:24;20.80;99.90
1411;DHT22;700;51.906;8.404;2022-08-19T04:28:28;20.80;99.90
1411;DHT22;700;51.906;8.404;2022-08-19T04:33:29;20.70;99.90
1411;DHT22;700;51.906;8.404;2022-08-19T04:38:29;20.80;99.90
1411;DHT22;700;51.906;8.404;2022-08-19T04:43:36;20.80;99.90
1411;DHT22;700;51.906;8.404;2022-08-19T04:48:39;20.70;99.90
1411;DHT22;700;51.906;8.404;2022-08-19T04:53:41;20.70;99.90
1411;DHT22;700;51.906;8.404;2022-08-19T04:58:43;20.80;99.90
1411;DHT22;700;51.906;8.404;2022-08-19T05:03:46;20.80;99.90
1411;DHT22;700;51.906;8.404;2022-08-19T05:08:52;20.80;99.90
1411;DHT22;700;51.906;8.404;2022-08-19T05:13:53;20.70;99.90
1411;DHT22;700;51.906;8.404;2022-08-19T05:18:54;20.70;99.90
1411;DHT22;700;51.906;8.404;2022-08-19T05:24:16;20.80;99.90
1411;DHT22;700;51.906;8.404;2022-08-19T05:29:21;20.90;99.90
1411;DHT22;700;51.906;8.404;2022-08-19T05:34:27;20.90;99.90
1411;DHT22;700;51.906;8.404;2022-08-19T05:39:29;21.00;99.90
1411;DHT22;700;51.906;8.404;2022-08-19T05:44:33;21.10;99.90
1411;DHT22;700;51.906;8.404;2022-08-19T05:49:35;21.10;99.90
1411;DHT22;700;51.906;8.404;2022-08-19T05:54:40;21.20;99.90
1411;DHT22;700;51.906;8.404;2022-08-19T05:59:45;21.20;99.90
1411;DHT22;700;51.906;8.404;2022-08-19T06:04:51;21.30;99.90
1411;DHT22;700;51.906;8.404;2022-08-19T06:09:52;21.30;99.90
1411;DHT22;700;51.906;8.404;2022-08-19T06:14:56;21.40;99.90
1411;DHT22;700;51.906;8.404;2022-08-19T06:20:02;21.30;99.90
1411;DHT22;700;51.906;8.404;2022-08-19T06:25:06;21.30;99.90
1411;DHT22;700;51.906;8.404;2022-08-19T06:30:10;21.40;99.90
1411;DHT22;700;51.906;8.404;2022-08-19T06:35:13;21.60;99.90
1411;DHT22;700;51.906;8.404;2022-08-19T06:40:14;21.60;99.90
1411;DHT22;700;51.906;8.404;2022-08-19T06:45:15;21.70;99.90
1411;DHT22;700;51.906;8.404;2022-08-19T06:50:16;21.90;99.90
1411;DHT22;700;51.906;8.404;2022-08-19T06:55:17;22.00;99.90
1411;DHT22;700;51.906;8.404;2022-08-19T07:00:22;22.10;99.90
1411;DHT22;700;51.906;8.404;2022-08-19T07:05:22;22.30;99.90
1411;DHT22;700;51.906;8.404;2022-08-19T07:10:23;22.50;99.90
1411;DHT22;700;51.906;8.404;2022-08-19T07:15:25;22.90;99.90
1411;DHT22;700;51.906;8.404;2022-08-19T07:20:28;23.20;99.90
1411;DHT22;700;51.906;8.404;2022-08-19T07:25:31;23.20;99.90
1411;DHT22;700;51.906;8.404;2022-08-19T07:30:32;23.30;99.90
1411;DHT22;700;51.906;8.404;2022-08-19T07:35:35;23.50;99.90
1411;DHT22;700;51.906;8.404;2022-08-19T07:40:38;23.80;99.90
1411;DHT22;700;51.906;8.404;2022-08-19T07:45:42;23.90;99.90
1411;DHT22;700;51.906;8.404;2022-08-19T07:50:45;24.00;99.90
1411;DHT22;700;51.906;8.404;2022-08-19T07:55:46;23.80;99.90
1411;DHT22;700;51.906;8.404;2022-08-19T08:00:51;24.40;99.90
1411;DHT22;700;51.906;8.404;2022-08-19T08:05:51;24.90;99.90
1411;DHT22;700;51.906;8.404;2022-08-19T08:11:12;25.20;99.90
1411;DHT22;700;51.906;8.404;2022-08-19T08:16:13;25.40;99.90
1411;DHT22;700;51.906;8.404;2022-08-19T08:21:18;25.70;99.90
1411;DHT22;700;51.906;8.404;2022-08-19T08:26:18;26.10;99.90
1411;DHT22;700;51.906;8.404;2022-08-19T08:31:20;26.40;99.90
1411;DHT22;700;51.906;8.404;2022-08-19T08:36:21;26.60;99.90
1411;DHT22;700;51.906;8.404;2022-08-19T08:41:34;26.60;99.90
1411;DHT22;700;51.906;8.404;2022-08-19T08:46:37;27.10;99.90
1411;DHT22;700;51.906;8.404;2022-08-19T08:51:51;27.40;99.90
1411;DHT22;700;51.906;8.404;2022-08-19T08:56:53;27.90;99.90
1411;DHT22;700;51.906;8.404;2022-08-19T09:01:54;28.40;99.90
1411;DHT22;700;51.906;8.404;2022-08-19T09:17:10;29.00;99.90
1411;DHT22;700;51.906;8.404;2022-08-19T09:22:11;28.80;99.90
1411;DHT22;700;51.906;8.404;2022-08-19T09:27:12;29.10;99.90
1411;DHT22;700;51.906;8.404;2022-08-19T09:32:12;29.80;99.90
1411;DHT22;700;51.906;8.404;2022-08-19T09:37:13;30.00;99.90
1411;DHT22;700;51.906;8.404;2022-08-19T09:42:14;30.80;99.90
1411;DHT22;700;51.906;8.404;2022-08-19T09:47:19;31.00;99.90
1411;DHT22;700;51.906;8.404;2022-08-19T09:52:20;30.50;99.90
1411;DHT22;700;51.906;8.404;2022-08-19T09:57:23;31.40;99.90
1411;DHT22;700;51.906;8.404;2022-08-19T10:02:24;38.20;80.70
1411;DHT22;700;51.906;8.404;2022-08-19T10:07:25;44.10;53.50
1411;DHT22;700;51.906;8.404;2022-08-19T10:12:28;48.30;39.20
1411;DHT22;700;51.906;8.404;2022-08-19T10:17:29;52.00;31.00
1411;DHT22;700;51.906;8.404;2022-08-19T10:22:32;53.00;28.70
1411;DHT22;700;51.906;8.404;2022-08-19T10:27:35;52.20;28.50
1411;DHT22;700;51.906;8.404;2022-08-19T10:32:37;51.40;27.80
1411;DHT22;700;51.906;8.404;2022-08-19T10:37:39;53.40;27.00
1411;DHT22;700;51.906;8.404;2022-08-19T10:42:41;52.70;25.90
1411;DHT22;700;51.906;8.404;2022-08-19T10:47:42;47.80;27.60
1411;DHT22;700;51.906;8.404;2022-08-19T10:52:45;46.10;29.40
1411;DHT22;700;51.906;8.404;2022-08-19T10:57:47;50.10;28.00
1411;DHT22;700;51.906;8.404;2022-08-19T11:02:48;52.20;26.50
1411;DHT22;700;51.906;8.404;2022-08-19T11:07:49;55.20;23.70
1411;DHT22;700;51.906;8.404;2022-08-19T11:12:51;56.90;22.10
1411;DHT22;700;51.906;8.404;2022-08-19T11:17:55;58.40;20.80
1411;DHT22;700;51.906;8.404;2022-08-19T11:22:59;58.40;20.10
1411;DHT22;700;51.906;8.404;2022-08-19T11:28:02;56.80;21.10
1411;DHT22;700;51.906;8.404;2022-08-19T11:33:02;56.60;20.30
1411;DHT22;700;51.906;8.404;2022-08-19T11:38:03;56.70;20.10
1411;DHT22;700;51.906;8.404;2022-08-19T11:43:04;53.10;22.40
1411;DHT22;700;51.906;8.404;2022-08-19T11:48:05;52.40;22.80
1411;DHT22;700;51.906;8.404;2022-08-19T11:53:07;55.30;21.70
1411;DHT22;700;51.906;8.404;2022-08-19T11:58:08;56.00;21.00
1411;DHT22;700;51.906;8.404;2022-08-19T12:03:12;57.80;19.50
1411;DHT22;700;51.906;8.404;2022-08-19T12:08:13;54.10;21.20
1411;DHT22;700;51.906;8.404;2022-08-19T12:13:17;51.90;23.40
1411;DHT22;700;51.906;8.404;2022-08-19T12:18:18;53.70;22.40
1411;DHT22;700;51.906;8.404;2022-08-19T12:23:21;53.90;22.00
1411;DHT22;700;51.906;8.404;2022-08-19T12:28:25;55.10;21.60
1411;DHT22;700;51.906;8.404;2022-08-19T12:33:26;54.30;21.40
1411;DHT22;700;51.906;8.404;2022-08-19T12:38:30;49.30;24.00
1411;DHT22;700;51.906;8.404;2022-08-19T12:43:33;45.60;27.10
1411;DHT22;700;51.906;8.404;2022-08-19T12:48:35;41.80;30.20
1411;DHT22;700;51.906;8.404;2022-08-19T12:53:39;39.40;34.20
1411;DHT22;700;51.906;8.404;2022-08-19T12:58:43;38.50;35.90
1411;DHT22;700;51.906;8.404;2022-08-19T13:03:45;38.90;37.20
1411;DHT22;700;51.906;8.404;2022-08-19T13:08:46;42.80;32.20
1411;DHT22;700;51.906;8.404;2022-08-19T13:13:48;46.00;29.00
1411;DHT22;700;51.906;8.404;2022-08-19T13:18:56;47.50;27.50
1411;DHT22;700;51.906;8.404;2022-08-19T13:23:57;46.30;28.20
1411;DHT22;700;51.906;8.404;2022-08-19T13:29:02;43.80;29.90
1411;DHT22;700;51.906;8.404;2022-08-19T13:34:32;42.20;31.90
1411;DHT22;700;51.906;8.404;2022-08-19T13:39:36;43.60;30.10
1411;DHT22;700;51.906;8.404;2022-08-19T13:44:37;47.00;27.90
1411;DHT22;700;51.906;8.404;2022-08-19T13:49:40;48.20;26.60
1411;DHT22;700;51.906;8.404;2022-08-19T13:54:40;46.20;26.90
1411;DHT22;700;51.906;8.404;2022-08-19T13:59:41;47.00;27.50
1411;DHT22;700;51.906;8.404;2022-08-19T14:04:42;46.70;27.70
1411;DHT22;700;51.906;8.404;2022-08-19T14:09:45;46.30;28.10
1411;DHT22;700;51.906;8.404;2022-08-19T14:14:48;43.50;29.10
1411;DHT22;700;51.906;8.404;2022-08-19T14:19:49;42.40;30.70
1411;DHT22;700;51.906;8.404;2022-08-19T14:24:49;41.10;30.60
1411;DHT22;700;51.906;8.404;2022-08-19T14:29:51;40.00;31.70
1411;DHT22;700;51.906;8.404;2022-08-19T14:34:52;39.80;33.10
1411;DHT22;700;51.906;8.404;2022-08-19T14:39:53;39.20;33.80
1411;DHT22;700;51.906;8.404;2022-08-19T14:44:59;38.00;35.10
1411;DHT22;700;51.906;8.404;2022-08-19T14:50:00;37.30;36.10
1411;DHT22;700;51.906;8.404;2022-08-19T14:55:01;37.20;37.00
1411;DHT22;700;51.906;8.404;2022-08-19T15:00:03;36.90;38.00
1411;DHT22;700;51.906;8.404;2022-08-19T15:05:05;36.50;38.10
1411;DHT22;700;51.906;8.404;2022-08-19T15:10:07;36.70;38.60
1411;DHT22;700;51.906;8.404;2022-08-19T15:15:13;36.60;38.70
1411;DHT22;700;51.906;8.404;2022-08-19T15:20:17;35.70;39.40
1411;DHT22;700;51.906;8.404;2022-08-19T15:25:18;34.90;41.20
1411;DHT22;700;51.906;8.404;2022-08-19T15:30:22;34.40;42.10
1411;DHT22;700;51.906;8.404;2022-08-19T15:35:24;34.30;42.90
1411;DHT22;700;51.906;8.404;2022-08-19T15:40:26;34.00;42.70
1411;DHT22;700;51.906;8.404;2022-08-19T15:45:27;33.80;43.40
1411;DHT22;700;51.906;8.404;2022-08-19T15:50:32;33.80;43.60
1411;DHT22;700;51.906;8.404;2022-08-19T15:55:41;33.70;43.30
1411;DHT22;700;51.906;8.404;2022-08-19T16:00:42;33.30;44.30
1411;DHT22;700;51.906;8.404;2022-08-19T16:06:02;33.00;44.70
1411;DHT22;700;51.906;8.404;2022-08-19T16:11:23;32.60;46.20
1411;DHT22;700;51.906;8.404;2022-08-19T16:16:31;32.10;46.90
1411;DHT22;700;51.906;8.404;2022-08-19T16:21:34;32.10;47.30
1411;DHT22;700;51.906;8.404;2022-08-19T16:26:34;32.00;47.20
1411;DHT22;700;51.906;8.404;2022-08-19T16:31:35;31.70;48.50
1411;DHT22;700;51.906;8.404;2022-08-19T16:36:37;31.60;48.90
1411;DHT22;700;51.906;8.404;2022-08-19T16:41:43;31.40;49.40
1411;DHT22;700;51.906;8.404;2022-08-19T16:46:44;31.30;49.30
1411;DHT22;700;51.906;8.404;2022-08-19T16:51:47;31.20;49.80
1411;DHT22;700;51.906;8.404;2022-08-19T16:56:50;30.90;50.60
1411;DHT22;700;51.906;8.404;2022-08-19T17:01:53;30.90;50.80
1411;DHT22;700;51.906;8.404;2022-08-19T17:06:56;30.70;50.70
1411;DHT22;700;51.906;8.404;2022-08-19T17:11:59;30.50;51.30
1411;DHT22;700;51.906;8.404;2022-08-19T17:17:00;30.20;52.70
1411;DHT22;700;51.906;8.404;2022-08-19T17:22:03;29.90;54.10
1411;DHT22;700;51.906;8.404;2022-08-19T17:27:04;29.80;55.70
1411;DHT22;700;51.906;8.404;2022-08-19T17:32:05;29.80;55.40
1411;DHT22;700;51.906;8.404;2022-08-19T17:37:07;29.70;55.70
1411;DHT22;700;51.906;8.404;2022-08-19T17:42:07;29.60;56.60
1411;DHT22;700;51.906;8.404;2022-08-19T17:47:10;29.50;57.00
1411;DHT22;700;51.906;8.404;2022-08-19T17:52:14;29.50;57.20
1411;DHT22;700;51.906;8.404;2022-08-19T17:57:15;29.40;58.30
1411;DHT22;700;51.906;8.404;2022-08-19T18:02:17;29.20;58.80
1411;DHT22;700;51.906;8.404;2022-08-19T18:07:18;29.20;59.80
1411;DHT22;700;51.906;8.404;2022-08-19T18:12:25;29.00;61.00
1411;DHT22;700;51.906;8.404;2022-08-19T18:17:28;28.80;62.10
1411;DHT22;700;51.906;8.404;2022-08-19T18:22:34;28.60;64.30
1411;DHT22;700;51.906;8.404;2022-08-19T18:27:37;28.50;65.00
1411;DHT22;700;51.906;8.404;2022-08-19T18:32:38;28.40;66.80
1411;DHT22;700;51.906;8.404;2022-08-19T18:37:44;28.30;67.70
1411;DHT22;700;51.906;8.404;2022-08-19T18:42:47;28.20;68.80
1411;DHT22;700;51.906;8.404;2022-08-19T18:48:06;28.10;70.00
1411;DHT22;700;51.906;8.404;2022-08-19T18:53:29;28.10;70.70
1411;DHT22;700;51.906;8.404;2022-08-19T18:58:31;27.90;72.50
1411;DHT22;700;51.906;8.404;2022-08-19T19:03:42;27.90;73.70
1411;DHT22;700;51.906;8.404;2022-08-19T19:08:46;27.70;75.50
1411;DHT22;700;51.906;8.404;2022-08-19T19:13:47;27.60;77.00
1411;DHT22;700;51.906;8.404;2022-08-19T19:18:53;27.50;78.40
1411;DHT22;700;51.906;8.404;2022-08-19T19:23:54;27.60;80.30
1411;DHT22;700;51.906;8.404;2022-08-19T19:28:55;27.60;79.20
1411;DHT22;700;51.906;8.404;2022-08-19T19:33:56;27.50;81.40
1411;DHT22;700;51.906;8.404;2022-08-19T19:38:57;27.50;82.00
1411;DHT22;700;51.906;8.404;2022-08-19T19:43:58;27.40;82.60
1411;DHT22;700;51.906;8.404;2022-08-19T19:49:03;27.40;84.20
1411;DHT22;700;51.906;8.404;2022-08-19T19:54:08;27.20;85.90
1411;DHT22;700;51.906;8.404;2022-08-19T19:59:12;27.20;87.20
1411;DHT22;700;51.906;8.404;2022-08-19T20:04:17;27.00;88.80
1411;DHT22;700;51.906;8.404;2022-08-19T20:09:17;26.90;90.20
1411;DHT22;700;51.906;8.404;2022-08-19T20:14:25;26.70;90.90
1411;DHT22;700;51.906;8.404;2022-08-19T20:19:31;26.70;91.60
1411;DHT22;700;51.906;8.404;2022-08-19T20:24:37;26.50;92.50
1411;DHT22;700;51.906;8.404;2022-08-19T20:29:43;26.30;92.50
1411;DHT22;700;51.906;8.404;2022-08-19T20:34:44;26.20;92.60
1411;DHT22;700;51.906;8.404;2022-08-19T20:39:48;26.10;93.30
1411;DHT22;700;51.906;8.404;2022-08-19T20:44:49;25.90;95.10
1411;DHT22;700;51.906;8.404;2022-08-19T20:49:49;25.90;97.70
1411;DHT22;700;51.906;8.404;2022-08-19T20:54:50;26.00;99.40
1411;DHT22;700;51.906;8.404;2022-08-19T20:59:51;25.80;99.90
1411;DHT22;700;51.906;8.404;2022-08-19T21:04:54;25.70;99.90
1411;DHT22;700;51.906;8.404;2022-08-19T21:09:57;26.00;99.90
1411;DHT22;700;51.906;8.404;2022-08-19T21:14:58;26.00;99.90
1411;DHT22;700;51.906;8.404;2022-08-19T21:20:02;26.00;99.90
1411;DHT22;700;51.906;8.404;2022-08-19T21:25:06;26.00;99.90
1411;DHT22;700;51.906;8.404;2022-08-19T21:30:07;26.10;99.90
1411;DHT22;700;51.906;8.404;2022-08-19T21:35:08;26.20;99.90
1411;DHT22;700;51.906;8.404;2022-08-19T21:40:10;26.10;99.90
1411;DHT22;700;51.906;8.404;2022-08-19T21:45:12;26.00;99.90
1411;DHT22;700;51.906;8.404;2022-08-19T21:50:15;26.00;99.90
1411;DHT22;700;51.906;8.404;2022-08-19T21:55:16;26.00;99.90
1411;DHT22;700;51.906;8.404;2022-08-19T22:00:19;26.00;99.90
1411;DHT22;700;51.906;8.404;2022-08-19T22:05:24;26.00;99.90
1411;DHT22;700;51.906;8.404;2022-08-19T22:10:28;25.80;99.90
1411;DHT22;700;51.906;8.404;2022-08-19T22:15:30;25.80;99.90
1411;DHT22;700;51.906;8.404;2022-08-19T22:20:33;25.90;99.90
1411;DHT22;700;51.906;8.404;2022-08-19T22:25:39;25.80;99.90
1411;DHT22;700;51.906;8.404;2022-08-19T22:30:41;25.70;99.90
1411;DHT22;700;51.906;8.404;2022-08-19T22:35:44;25.70;99.90
1411;DHT22;700;51.906;8.404;2022-08-19T22:40:47;25.70;99.90
1411;DHT22;700;51.906;8.404;2022-08-19T22:45:53;25.30;99.90
1411;DHT22;700;51.906;8.404;2022-08-19T22:50:56;25.40;99.90
1411;DHT22;700;51.906;8.404;2022-08-19T22:56:16;25.60;99.90
1411;DHT22;700;51.906;8.404;2022-08-19T23:01:19;25.60;99.90
1411;DHT22;700;51.906;8.404;2022-08-19T23:06:21;25.60;99.90
1411;DHT22;700;51.906;8.404;2022-08-19T23:11:21;25.60;99.90
1411;DHT22;700;51.906;8.404;2022-08-19T23:16:22;25.60;99.90
1411;DHT22;700;51.906;8.404;2022-08-19T23:21:24;25.70;99.90
1411;DHT22;700;51.906;8.404;2022-08-19T23:26:25;25.60;99.90
1411;DHT22;700;51.906;8.404;2022-08-19T23:31:28;25.40;99.90
1411;DHT22;700;51.906;8.404;2022-08-19T23:36:29;25.30;99.90
1411;DHT22;700;51.906;8.404;2022-08-19T23:41:30;25.30;99.90
1411;DHT22;700;51.906;8.404;2022-08-19T23:46:33;25.00;99.90
1411;DHT22;700;51.906;8.404;2022-08-19T23:51:35;24.90;99.90
1411;DHT22;700;51.906;8.404;2022-08-19T23:56:36;24.90;99.90
